Terminal Aerodrome Forecast
Issued by NWS

Home | Current Version | Previous Version | Text Only | Print | Product List | Glossary On
Versions: 1 2 3 4 5 6 7 8 9 10 11 12 13 14 15 16 17 18 19 20 21 22
000
FTUS41 KGYX 050520
TAFPSM
TAF
KPSM 050520Z 0506/0606 03010KT 5SM -DZ BR OVC005
     FM051200 02011KT P6SM OVC012
     FM051600 04012G20KT P6SM OVC025
     FM052100 01010G17KT 5SM -RA OVC012=

USA.gov is the U.S. government's official web portal to all federal, state and local government web resources and services.